createdAt,value
2023-05-16T00:09:50.750Z,101688.28
2023-05-16T00:20:14.165Z,101683.13
2023-05-16T00:30:35.565Z,101681.50
2023-05-16T00:40:56.911Z,101657.53
2023-05-16T00:51:18.698Z,101672.88
2023-05-16T01:01:41.082Z,101671.47
2023-05-16T01:12:03.170Z,101679.28
2023-05-16T01:22:31.152Z,101695.00
2023-05-16T01:32:52.841Z,101700.38
2023-05-16T01:43:17.064Z,101700.63
2023-05-16T01:53:39.031Z,101705.13
2023-05-16T02:04:00.704Z,101724.41
2023-05-16T02:14:22.123Z,101722.09
2023-05-16T02:24:43.551Z,101722.31
2023-05-16T02:35:05.183Z,101740.63
2023-05-16T02:45:27.061Z,101741.06
2023-05-16T02:55:48.652Z,101756.81
2023-05-16T03:06:10.143Z,101759.66
2023-05-16T03:16:31.861Z,101772.81
2023-05-16T03:26:53.249Z,101770.41
2023-05-16T03:37:16.038Z,101783.44
2023-05-16T03:47:37.494Z,101793.84
2023-05-16T03:57:58.870Z,101798.28
2023-05-16T04:08:20.220Z,101796.66
2023-05-16T04:18:41.684Z,101796.59
2023-05-16T04:29:03.631Z,101812.97
2023-05-16T04:39:24.991Z,101825.09
2023-05-16T04:49:46.458Z,101831.19
2023-05-16T05:00:09.004Z,101835.31
2023-05-16T05:10:31.218Z,101845.53
2023-05-16T05:20:52.810Z,101852.34
2023-05-16T05:31:14.200Z,101846.97
2023-05-16T05:41:35.698Z,101851.09
2023-05-16T05:51:57.130Z,101860.41
2023-05-16T06:02:18.590Z,101862.69
2023-05-16T06:12:40.033Z,101865.88
2023-05-16T06:23:01.424Z,101871.50
2023-05-16T06:33:22.796Z,101884.88
2023-05-16T06:43:44.187Z,101893.34
2023-05-16T06:54:05.631Z,101901.81
2023-05-16T07:04:27.235Z,101903.69
2023-05-16T07:14:48.685Z,101903.81
2023-05-16T07:25:12.769Z,101907.09
2023-05-16T07:35:34.548Z,101917.59
2023-05-16T07:45:56.044Z,101910.94
2023-05-16T07:56:17.807Z,101916.59
2023-05-16T08:06:39.348Z,101929.72
2023-05-16T08:17:00.822Z,101922.25
2023-05-16T08:27:22.291Z,101923.94
2023-05-16T08:37:43.714Z,101921.69
2023-05-16T08:48:07.202Z,101907.28
2023-05-16T08:58:30.525Z,101919.19
2023-05-16T09:08:52.365Z,101923.25
2023-05-16T09:19:14.209Z,101910.16
2023-05-16T09:29:37.034Z,101897.84
2023-05-16T09:40:00.381Z,101986.25
2023-05-16T09:50:21.807Z,101961.47
2023-05-16T10:00:43.300Z,101946.72
2023-05-16T10:11:05.818Z,101934.16
2023-05-16T10:21:28.377Z,101971.53
2023-05-16T10:31:50.127Z,101973.31
2023-05-16T10:42:14.274Z,101978.13
2023-05-16T10:52:35.731Z,101961.50
2023-05-16T11:03:06.574Z,101975.69
2023-05-16T11:13:28.793Z,101967.41
2023-05-16T11:24:09.037Z,101953.41
2023-05-16T11:34:31.053Z,101968.66
2023-05-16T11:45:04.381Z,102033.13
2023-05-16T11:55:40.991Z,101998.66
2023-05-16T12:06:06.521Z,101988.91
2023-05-16T12:16:28.128Z,101989.66
2023-05-16T12:26:49.646Z,101993.47
2023-05-16T12:37:11.366Z,101985.13
2023-05-16T12:47:37.454Z,102020.69
2023-05-16T12:58:01.154Z,102048.09
2023-05-16T13:08:23.549Z,102024.06
2023-05-16T13:18:45.123Z,102006.81
2023-05-16T13:29:06.644Z,101995.41
2023-05-16T13:39:28.063Z,101993.97
2023-05-16T13:49:49.450Z,101989.63
2023-05-16T14:10:38.521Z,101998.56
2023-05-16T14:21:00.005Z,102002.31
2023-05-16T14:31:21.612Z,102004.47
2023-05-16T14:41:43.220Z,102021.84
2023-05-16T14:52:04.768Z,102028.44
2023-05-16T15:02:27.040Z,102037.81
2023-05-16T15:12:48.534Z,102044.13
2023-05-16T15:23:09.953Z,102036.16
2023-05-16T15:33:31.406Z,102021.97
2023-05-16T15:43:52.965Z,102055.97
2023-05-16T15:54:14.501Z,102092.25
2023-05-16T16:04:35.974Z,102086.88
2023-05-16T16:14:57.421Z,102084.34
2023-05-16T16:25:19.174Z,102072.44
2023-05-16T16:35:40.632Z,102070.00
2023-05-16T16:46:02.123Z,102066.22
2023-05-16T16:56:23.565Z,102074.69
2023-05-16T17:06:46.572Z,102084.44
2023-05-16T17:17:09.891Z,102097.38
2023-05-16T17:27:32.075Z,102092.31
2023-05-16T17:37:53.804Z,102119.56
2023-05-16T17:48:15.420Z,102119.63
2023-05-16T17:58:36.938Z,102130.13
2023-05-16T18:08:58.434Z,102138.03
2023-05-16T18:19:19.923Z,102139.91
2023-05-16T18:29:42.193Z,102145.28
2023-05-16T18:40:03.746Z,102152.47
2023-05-16T18:50:25.934Z,102161.34
2023-05-16T19:00:47.533Z,102164.91
2023-05-16T19:11:08.944Z,102180.63
2023-05-16T19:21:30.456Z,102186.78
2023-05-16T19:31:51.929Z,102199.88
2023-05-16T19:42:13.404Z,102209.47
2023-05-16T19:52:35.036Z,102205.16
2023-05-16T20:02:56.564Z,102213.91
2023-05-16T20:13:20.406Z,102215.75
2023-05-16T20:23:41.812Z,102217.56
2023-05-16T20:34:03.253Z,102219.31
2023-05-16T20:44:24.708Z,102214.25
2023-05-16T20:54:46.088Z,102223.88
2023-05-16T21:05:23.232Z,102228.88
2023-05-16T21:15:46.815Z,102230.59
2023-05-16T21:26:08.328Z,102238.47
2023-05-16T21:36:29.747Z,102233.34
2023-05-16T21:46:51.376Z,102232.59
2023-05-16T21:57:12.772Z,102243.03
2023-05-16T22:07:34.188Z,102230.91
2023-05-16T22:17:57.501Z,102243.03
2023-05-16T22:28:18.984Z,102231.91
2023-05-16T22:38:40.431Z,102231.84
2023-05-16T22:49:02.067Z,102225.00
2023-05-16T22:59:23.526Z,102227.72
2023-05-16T23:09:44.948Z,102225.28
2023-05-16T23:20:06.859Z,102217.50
2023-05-16T23:30:28.303Z,102228.81
2023-05-16T23:40:49.709Z,102243.53
2023-05-16T23:51:11.190Z,102266.00
